»·PEaware :: N511V KSBP-KSMX

N511V :: KSBP-KSMX

FLIGHT INFORMATION

Flight Status: Arrived
Operator: Privately registered:
United States
More flights under this callsign
Pilot: Nasser A. (34038)
Aircraft: CESSNA 172 SKYHAWK
(C172)
More flights by this aircraft type
Origin: KSBP San Luis Co Regl
United States
Destination: KSMX Santa Maria Pub/Capt Hancock
United States
More flights between these airports :: More routes between these airports
Route: GPS
File this flight plan on PilotEdge
Remarks:
Altitude:
(Current/Filed)
7,000ft
Speed:
(Current/Filed)
100kts
Departed: 13-Nov-21 12:34 PM
Arrived: 13-Nov-21 12:52 PM
Distance/Time
Traveled:
22nm/0:17
Distance/Time
To Go:
Arrived

Flight Plot

Page will automatically refresh every two minutes.

Flight plan parsing failed; only flown route is shown


Map Options




Map Legend


Flown Route
Filed Route
Departure Airport
Arrival Airport
Navaid (VOR, NDB)
Fix

Horizontal Profiles

Position Reports

Time Latitude Longitude Heading Altitude Ground
Speed
13-Nov-21 12:09 35.235581 -120.635167 36 208ft 0kts
13-Nov-21 12:10 35.235581 -120.635167 36 208ft 0kts
13-Nov-21 12:11 35.235581 -120.635167 36 208ft 0kts
13-Nov-21 12:12 35.235581 -120.635167 36 208ft 0kts
13-Nov-21 12:13 35.235581 -120.635167 36 208ft 0kts
13-Nov-21 12:14 35.235581 -120.635167 36 208ft 0kts
13-Nov-21 12:15 35.235581 -120.635167 36 208ft 0kts
13-Nov-21 12:16 35.235581 -120.635167 36 208ft 0kts
13-Nov-21 12:17 35.235581 -120.635167 36 208ft 0kts
13-Nov-21 12:18 35.235581 -120.635167 36 208ft 0kts
13-Nov-21 12:19 35.235581 -120.635167 36 208ft 0kts
13-Nov-21 12:20 35.235581 -120.635167 36 208ft 0kts
13-Nov-21 12:21 35.235581 -120.635167 36 208ft 0kts
13-Nov-21 12:22 35.235581 -120.635167 36 208ft 0kts
13-Nov-21 12:23 35.235581 -120.635167 36 208ft 0kts
13-Nov-21 12:24 35.235581 -120.635167 36 208ft 0kts
13-Nov-21 12:25 35.235581 -120.635167 36 208ft 0kts
13-Nov-21 12:26 35.235581 -120.635167 36 208ft 0kts
13-Nov-21 12:27 35.235581 -120.635167 36 208ft 0kts
13-Nov-21 12:28 35.235581 -120.635167 36 208ft 0kts
13-Nov-21 12:29 35.235574 -120.635125 150 208ft 0kts
13-Nov-21 12:30 35.234425 -120.634030 125 212ft 9kts
13-Nov-21 12:31 35.233243 -120.632406 208 219ft 0kts
13-Nov-21 12:32 35.233243 -120.632406 208 219ft 0kts
13-Nov-21 12:33 35.234468 -120.636007 304 207ft 62kts
13-Nov-21 12:34 35.248482 -120.660552 291 718ft 94kts
13-Nov-21 12:35 35.225815 -120.666132 169 1438ft 100kts
13-Nov-21 12:36 35.198374 -120.659111 163 2119ft 102kts
13-Nov-21 12:37 35.172006 -120.648321 132 2791ft 95kts
13-Nov-21 12:38 35.153433 -120.626648 133 3582ft 88kts
13-Nov-21 12:39 35.134458 -120.604233 132 4013ft 104kts
13-Nov-21 12:40 35.113005 -120.578206 133 4337ft 111kts
13-Nov-21 12:41 35.091035 -120.551250 133 4630ft 112kts
13-Nov-21 12:42 35.069047 -120.524073 132 4942ft 112kts
13-Nov-21 12:43 35.047170 -120.496880 133 5247ft 112kts
13-Nov-21 12:44 35.025359 -120.469565 132 5552ft 112kts
13-Nov-21 12:45 34.996238 -120.458730 169 5846ft 112kts
13-Nov-21 12:46 34.966031 -120.452123 172 5789ft 112kts
13-Nov-21 12:47 34.931214 -120.452804 175 3393ft 131kts
13-Nov-21 12:49 34.902061 -120.435264 148 1832ft 94kts
13-Nov-21 12:50 34.881677 -120.421071 153 1190ft 81kts
13-Nov-21 12:51 34.884120 -120.435515 320 775ft 87kts
13-Nov-21 12:52 34.899386 -120.453752 309 242ft 33kts
13-Nov-21 12:53 34.903400 -120.456767 44 232ft 0kts
13-Nov-21 12:54 34.903400 -120.456767 44 232ft 0kts
13-Nov-21 12:55 34.902680 -120.455198 135 234ft 10kts
13-Nov-21 12:56 34.901232 -120.453206 59 239ft 3kts
13-Nov-21 12:57 34.900701 -120.451691 98 242ft 7kts
13-Nov-21 12:58 34.900751 -120.451470 50 242ft 0kts
13-Nov-21 12:59 34.900751 -120.451470 50 242ft 0kts
13-Nov-21 13:00 34.900751 -120.451470 50 242ft 0kts
13-Nov-21 13:01 34.900751 -120.451470 50 242ft 0kts
13-Nov-21 13:02 34.900751 -120.451470 50 242ft 0kts
13-Nov-21 13:03 34.900751 -120.451470 50 242ft 0kts
13-Nov-21 13:04 34.900751 -120.451470 50 242ft 0kts
13-Nov-21 13:05 34.900751 -120.451470 50 242ft 0kts
13-Nov-21 13:06 34.900751 -120.451470 50 242ft 0kts

Navigation Log

Ident Type
Flight plan parsing failed, navigation log unavailable